createdAt,value
2022-12-09T00:01:08.074Z,98752.22
2022-12-09T00:03:36.438Z,98751.72
2022-12-09T00:06:07.943Z,98751.22
2022-12-09T00:08:36.701Z,98745.13
2022-12-09T00:11:05.081Z,98743.25
2022-12-09T00:13:34.637Z,98738.16
2022-12-09T00:16:07.215Z,98741.16
2022-12-09T00:18:35.427Z,98732.84
2022-12-09T00:21:13.480Z,98727.88
2022-12-09T00:23:41.321Z,98728.25
2022-12-09T00:26:09.835Z,98734.50
2022-12-09T00:28:39.673Z,98744.41
2022-12-09T00:31:08.398Z,98740.63
2022-12-09T00:33:36.648Z,98734.69
2022-12-09T00:36:06.924Z,98736.81
2022-12-09T00:38:34.813Z,98730.50
2022-12-09T00:41:02.740Z,98739.47
2022-12-09T00:43:30.750Z,98736.16
2022-12-09T00:46:00.080Z,98734.38
2022-12-09T00:48:28.413Z,98732.50
2022-12-09T00:50:56.471Z,98737.19
2022-12-09T00:53:25.012Z,98730.97
2022-12-09T00:55:53.165Z,98739.28
2022-12-09T00:58:21.087Z,98732.66
2022-12-09T01:00:49.138Z,98728.00
2022-12-09T01:03:19.562Z,98736.97
2022-12-09T01:05:47.855Z,98730.00
2022-12-09T01:08:16.320Z,98727.41
2022-12-09T01:10:46.387Z,98725.91
2022-12-09T01:13:15.983Z,98728.69
2022-12-09T01:15:44.812Z,98718.09
2022-12-09T01:18:13.662Z,98721.13
2022-12-09T01:20:43.275Z,98727.97
2022-12-09T01:23:11.618Z,98725.34
2022-12-09T01:25:39.979Z,98728.97
2022-12-09T01:28:07.937Z,98729.81
2022-12-09T01:30:38.645Z,98738.09
2022-12-09T01:33:06.863Z,98732.16
2022-12-09T01:35:35.467Z,98727.25
2022-12-09T01:38:04.812Z,98731.09
2022-12-09T01:40:33.216Z,98727.28
2022-12-09T01:43:01.264Z,98730.94
2022-12-09T01:45:44.171Z,98735.91
2022-12-09T01:48:14.460Z,98734.63
2022-12-09T01:50:47.443Z,98731.31
2022-12-09T01:53:19.589Z,98728.63
2022-12-09T01:55:47.705Z,98715.72
2022-12-09T01:58:16.128Z,98728.50
2022-12-09T02:00:45.740Z,98730.03
2022-12-09T02:03:14.357Z,98729.72
2022-12-09T02:05:43.357Z,98722.75
2022-12-09T02:08:13.802Z,98719.28
2022-12-09T02:10:53.261Z,98717.13
2022-12-09T02:13:29.990Z,98716.97
2022-12-09T02:16:00.417Z,98717.84
2022-12-09T02:18:36.800Z,98706.59
2022-12-09T02:21:10.693Z,98708.91
2022-12-09T02:23:45.898Z,98708.75
2022-12-09T02:26:22.380Z,98708.25
2022-12-09T02:29:14.282Z,98706.94
2022-12-09T02:31:56.180Z,98708.41
2022-12-09T02:34:29.575Z,98699.81
2022-12-09T02:37:03.061Z,98699.00
2022-12-09T02:39:36.617Z,98699.97
2022-12-09T02:42:07.846Z,98699.31
2022-12-09T02:44:37.916Z,98698.81
2022-12-09T02:47:08.235Z,98689.41
2022-12-09T02:49:39.541Z,98687.44
2022-12-09T02:52:08.093Z,98688.09
2022-12-09T02:54:39.077Z,98692.41
2022-12-09T02:57:14.058Z,98684.16
2022-12-09T02:59:42.014Z,98687.81
2022-12-09T03:02:20.131Z,98688.13
2022-12-09T03:05:02.343Z,98688.78
2022-12-09T03:07:44.060Z,98691.25
2022-12-09T03:10:18.942Z,98682.16
2022-12-09T03:12:53.799Z,98678.19
2022-12-09T03:15:27.582Z,98668.59
2022-12-09T03:17:58.143Z,98671.25
2022-12-09T03:20:31.040Z,98668.47
2022-12-09T03:23:01.646Z,98667.28
2022-12-09T03:25:33.802Z,98667.28
2022-12-09T03:28:04.741Z,98660.16
2022-12-09T03:30:36.772Z,98659.69
2022-12-09T03:33:06.106Z,98651.75
2022-12-09T03:35:39.226Z,98650.44
2022-12-09T03:38:11.033Z,98651.09
2022-12-09T03:40:40.676Z,98643.66
2022-12-09T03:43:14.150Z,98645.81
2022-12-09T03:45:43.259Z,98649.25
2022-12-09T03:48:12.686Z,98647.09
2022-12-09T03:50:49.428Z,98650.44
2022-12-09T03:53:22.653Z,98653.41
2022-12-09T03:55:59.335Z,98643.50
2022-12-09T03:58:29.003Z,98644.16
2022-12-09T04:00:57.424Z,98640.16
2022-12-09T04:03:26.638Z,98648.78
2022-12-09T04:05:55.940Z,98645.94
2022-12-09T04:08:24.050Z,98636.16
2022-12-09T04:10:52.161Z,98634.84
2022-12-09T04:13:20.375Z,98630.91
2022-12-09T04:15:48.372Z,98638.19
2022-12-09T04:18:16.336Z,98638.88
2022-12-09T04:20:44.204Z,98642.81
2022-12-09T04:23:13.481Z,98637.03
2022-12-09T04:25:41.605Z,98643.47
2022-12-09T04:28:09.749Z,98641.50
2022-12-09T04:30:37.611Z,98637.38
2022-12-09T04:33:05.825Z,98643.47
2022-12-09T04:35:33.727Z,98643.81
2022-12-09T04:38:01.542Z,98638.53
2022-12-09T04:40:30.847Z,98639.19
2022-12-09T04:42:58.886Z,98644.00
2022-12-09T04:45:26.838Z,98638.53
2022-12-09T04:47:55.091Z,98635.22
2022-12-09T04:50:23.027Z,98642.47
2022-12-09T04:52:50.948Z,98632.88
2022-12-09T04:55:19.254Z,98634.22
2022-12-09T04:57:48.683Z,98626.13
2022-12-09T05:00:18.009Z,98624.31
2022-12-09T05:02:46.193Z,98628.63
2022-12-09T05:05:14.399Z,98622.81
2022-12-09T05:07:43.249Z,98615.69
2022-12-09T05:10:11.950Z,98614.03
2022-12-09T05:12:40.461Z,98615.19
2022-12-09T05:15:11.058Z,98619.34
2022-12-09T05:17:39.195Z,98614.38
2022-12-09T05:20:09.623Z,98619.50
2022-12-09T05:22:38.002Z,98615.38
2022-12-09T05:25:06.876Z,98609.75
2022-12-09T05:27:34.967Z,98605.91
2022-12-09T05:30:03.583Z,98610.19
2022-12-09T05:32:33.601Z,98607.38
2022-12-09T05:35:02.017Z,98611.72
2022-12-09T05:37:30.230Z,98608.72
2022-12-09T05:39:58.217Z,98600.78
2022-12-09T05:42:26.402Z,98599.16
2022-12-09T05:44:55.297Z,98590.50
2022-12-09T05:47:23.473Z,98590.19
2022-12-09T05:49:53.220Z,98596.13
2022-12-09T05:52:21.634Z,98587.22
2022-12-09T05:54:49.890Z,98583.94
2022-12-09T05:57:17.933Z,98576.34
2022-12-09T05:59:46.462Z,98579.31
2022-12-09T06:02:14.570Z,98570.72
2022-12-09T06:04:42.863Z,98580.66
2022-12-09T06:07:12.482Z,98581.19
2022-12-09T06:09:41.162Z,98581.19
2022-12-09T06:12:09.599Z,98578.03
2022-12-09T06:14:38.231Z,98578.16
2022-12-09T06:17:06.299Z,98572.25
2022-12-09T06:19:35.137Z,98568.78
2022-12-09T06:22:03.457Z,98567.13
2022-12-09T06:24:33.131Z,98563.00
2022-12-09T06:27:00.942Z,98558.53
2022-12-09T06:29:29.495Z,98559.69
2022-12-09T06:31:57.668Z,98565.16
2022-12-09T06:34:26.210Z,98557.38
2022-12-09T06:36:54.270Z,98553.59
2022-12-09T06:39:22.297Z,98554.72
2022-12-09T06:41:51.634Z,98558.72
2022-12-09T06:44:23.477Z,98552.25
2022-12-09T06:46:52.366Z,98558.56
2022-12-09T06:49:20.834Z,98561.84
2022-12-09T06:51:49.330Z,98560.69
2022-12-09T06:54:18.058Z,98559.19
2022-12-09T06:56:46.505Z,98560.34
2022-12-09T06:59:16.189Z,98564.50
2022-12-09T07:01:45.785Z,98575.38
2022-12-09T07:04:15.740Z,98569.09
2022-12-09T07:06:45.945Z,98564.00
2022-12-09T07:09:16.634Z,98575.06
2022-12-09T07:11:46.357Z,98570.75
2022-12-09T07:14:18.359Z,98571.28
2022-12-09T07:16:46.890Z,98573.75
2022-12-09T07:19:19.178Z,98575.41
2022-12-09T07:21:47.881Z,98581.34
2022-12-09T07:24:16.236Z,98583.84
2022-12-09T07:26:44.576Z,98585.81
2022-12-09T07:29:12.846Z,98581.69
2022-12-09T07:31:42.380Z,98586.97
2022-12-09T07:34:12.069Z,98588.94
2022-12-09T07:36:40.682Z,98589.28
2022-12-09T07:39:12.825Z,98585.63
2022-12-09T07:41:41.298Z,98587.97
2022-12-09T07:44:10.517Z,98588.28
2022-12-09T07:46:39.703Z,98589.44
2022-12-09T07:49:09.535Z,98581.69
2022-12-09T07:51:38.349Z,98589.28
2022-12-09T07:54:06.864Z,98589.94
2022-12-09T07:56:35.095Z,98597.03
2022-12-09T07:59:03.408Z,98594.56
2022-12-09T08:01:31.729Z,98601.16
2022-12-09T08:04:00.337Z,98601.19
2022-12-09T08:06:32.209Z,98595.84
2022-12-09T08:09:01.842Z,98587.91
2022-12-09T08:11:32.152Z,98593.22
2022-12-09T08:14:08.883Z,98589.22
2022-12-09T08:16:39.226Z,98586.25
2022-12-09T08:19:07.365Z,98586.56
2022-12-09T08:21:37.592Z,98577.25
2022-12-09T08:24:07.772Z,98564.69
2022-12-09T08:26:37.563Z,98571.31
2022-12-09T08:29:09.787Z,98566.66
2022-12-09T08:31:41.641Z,98568.81
2022-12-09T08:34:11.274Z,98569.25
2022-12-09T08:36:41.079Z,98564.94
2022-12-09T08:39:09.996Z,98562.59
2022-12-09T08:41:39.936Z,98553.66
2022-12-09T08:44:10.396Z,98550.22
2022-12-09T08:46:41.794Z,98551.72
2022-12-09T08:49:10.055Z,98549.38
2022-12-09T08:51:41.232Z,98538.94
2022-12-09T08:54:09.405Z,98538.78
2022-12-09T08:56:38.010Z,98543.91
2022-12-09T08:59:06.834Z,98534.78
2022-12-09T09:01:36.066Z,98528.16
2022-12-09T09:04:08.456Z,98533.00
2022-12-09T09:06:38.397Z,98528.88
2022-12-09T09:09:09.282Z,98525.53
2022-12-09T09:11:38.470Z,98522.84
2022-12-09T09:14:09.207Z,98530.06
2022-12-09T09:16:40.845Z,98525.97
2022-12-09T09:19:09.709Z,98519.09
2022-12-09T09:21:37.876Z,98511.22
2022-12-09T09:24:12.213Z,98514.38
2022-12-09T09:26:42.607Z,98509.88
2022-12-09T09:29:12.674Z,98513.38
2022-12-09T09:31:41.152Z,98508.72
2022-12-09T09:34:10.239Z,98514.41
2022-12-09T09:36:38.448Z,98516.59
2022-12-09T09:39:06.909Z,98510.47
2022-12-09T09:41:45.473Z,98516.22
2022-12-09T09:44:21.167Z,98514.81
2022-12-09T09:46:51.902Z,98508.56
2022-12-09T09:49:26.261Z,98500.78
2022-12-09T09:51:54.933Z,98500.41
2022-12-09T09:54:23.497Z,98497.00
2022-12-09T09:56:58.848Z,98487.69
2022-12-09T09:59:39.192Z,98497.22
2022-12-09T10:02:19.766Z,98498.84
2022-12-09T10:05:04.532Z,98490.41
2022-12-09T10:07:40.908Z,98493.06
2022-12-09T10:10:22.961Z,98489.44
2022-12-09T10:13:09.424Z,98489.59
2022-12-09T10:15:48.489Z,98481.53
2022-12-09T10:18:20.184Z,98484.31
2022-12-09T10:20:48.923Z,98478.28
2022-12-09T10:23:19.074Z,98475.50
2022-12-09T10:25:52.216Z,98471.00
2022-12-09T10:28:24.715Z,98469.19
2022-12-09T10:30:54.901Z,98477.53
2022-12-09T10:33:28.386Z,98475.09
2022-12-09T10:35:56.894Z,98473.19
2022-12-09T10:38:26.812Z,98477.03
2022-12-09T10:41:02.196Z,98471.72
2022-12-09T10:43:37.572Z,98471.81
2022-12-09T10:46:19.153Z,98462.66
2022-12-09T10:48:55.939Z,98472.94
2022-12-09T10:51:27.427Z,98468.53
2022-12-09T10:53:59.012Z,98469.47
2022-12-09T10:56:29.934Z,98463.66
2022-12-09T10:59:18.856Z,98453.50
2022-12-09T11:01:51.773Z,98455.41
2022-12-09T11:04:25.222Z,98458.00
2022-12-09T11:06:59.407Z,98451.66
2022-12-09T11:09:33.168Z,98459.47
2022-12-09T11:12:02.269Z,98444.22
2022-12-09T11:14:36.748Z,98452.25
2022-12-09T11:17:18.662Z,98449.91
2022-12-09T11:19:51.387Z,98447.44
2022-12-09T11:22:36.462Z,98443.28
2022-12-09T11:25:24.900Z,98438.56
2022-12-09T11:27:55.501Z,98426.66
2022-12-09T11:30:27.537Z,98432.06
2022-12-09T11:33:19.605Z,98435.22
2022-12-09T11:35:58.477Z,98433.31
2022-12-09T11:38:35.647Z,98430.75
2022-12-09T11:41:08.029Z,98431.50
2022-12-09T11:43:42.475Z,98424.59
2022-12-09T11:46:23.086Z,98440.38
2022-12-09T11:48:56.714Z,98435.09
2022-12-09T11:51:29.823Z,98432.88
2022-12-09T11:54:03.641Z,98430.34
2022-12-09T11:56:33.978Z,98427.81
2022-12-09T11:59:05.549Z,98421.25
2022-12-09T12:01:45.563Z,98415.59
2022-12-09T12:04:17.781Z,98408.91
2022-12-09T12:06:48.841Z,98399.59
2022-12-09T12:09:23.389Z,98402.06
2022-12-09T12:12:02.582Z,98404.09
2022-12-09T12:14:31.573Z,98390.63
2022-12-09T12:17:10.942Z,98387.91
2022-12-09T12:19:41.051Z,98393.28
2022-12-09T12:22:28.533Z,98392.53
2022-12-09T12:25:17.513Z,98395.41
2022-12-09T12:27:59.834Z,98399.50
2022-12-09T12:30:40.464Z,98397.88
2022-12-09T12:36:33.715Z,98398.16
2022-12-09T12:39:14.720Z,98393.28
2022-12-09T12:41:51.765Z,98390.56
2022-12-09T12:45:10.967Z,98393.13
2022-12-09T12:47:51.392Z,98385.75
2022-12-09T12:51:01.873Z,98384.94
2022-12-09T12:53:40.304Z,98396.16
2022-12-09T12:56:12.337Z,98392.03
2022-12-09T12:59:07.954Z,98390.38
2022-12-09T13:01:53.965Z,98391.00
2022-12-09T13:04:26.201Z,98387.19
2022-12-09T13:07:06.424Z,98381.94
2022-12-09T13:09:43.611Z,98388.81
2022-12-09T13:12:16.815Z,98392.66
2022-12-09T13:14:53.391Z,98386.72
2022-12-09T13:17:24.518Z,98377.97
2022-12-09T13:19:54.215Z,98384.78
2022-12-09T13:22:34.276Z,98382.94
2022-12-09T13:25:13.704Z,98376.81
2022-12-09T13:27:46.195Z,98373.53
2022-12-09T13:30:18.937Z,98370.75
2022-12-09T13:33:02.371Z,98372.66
2022-12-09T13:35:36.815Z,98373.03
2022-12-09T13:38:25.767Z,98372.88
2022-12-09T13:40:53.979Z,98371.50
2022-12-09T13:43:25.748Z,98373.16
2022-12-09T13:45:57.374Z,98373.28
2022-12-09T13:48:45.333Z,98365.44
2022-12-09T13:51:14.609Z,98360.50
2022-12-09T13:54:01.199Z,98360.25
2022-12-09T13:56:31.705Z,98356.97
2022-12-09T13:59:32.719Z,98355.69
2022-12-09T14:02:11.365Z,98356.06
2022-12-09T14:04:47.755Z,98353.53
2022-12-09T14:07:27.395Z,98351.59
2022-12-09T14:09:58.142Z,98344.13
2022-12-09T14:13:05.072Z,98337.22
2022-12-09T14:15:39.249Z,98349.88
2022-12-09T14:18:28.675Z,98343.63
2022-12-09T14:21:31.531Z,98347.09
2022-12-09T14:24:36.774Z,98355.31
2022-12-09T14:27:17.492Z,98349.19
2022-12-09T14:29:48.793Z,98346.28
2022-12-09T14:32:26.037Z,98351.53
2022-12-09T14:35:22.575Z,98358.47
2022-12-09T14:38:02.825Z,98364.81
2022-12-09T14:40:52.719Z,98374.03
2022-12-09T14:43:50.484Z,98373.78
2022-12-09T14:46:30.101Z,98376.31
2022-12-09T14:49:02.554Z,98393.66
2022-12-09T14:51:36.780Z,98376.69
2022-12-09T14:54:26.135Z,98382.59
2022-12-09T14:56:57.675Z,98389.84
2022-12-09T14:59:29.115Z,98387.44
2022-12-09T15:01:59.147Z,98397.97
2022-12-09T15:04:31.389Z,98394.47
2022-12-09T15:07:25.176Z,98398.78
2022-12-09T15:09:55.825Z,98386.59
2022-12-09T15:12:28.310Z,98396.06
2022-12-09T15:15:00.853Z,98399.59
2022-12-09T15:17:32.895Z,98393.03
2022-12-09T15:20:12.159Z,98394.22
2022-12-09T15:22:40.252Z,98392.13
2022-12-09T15:25:18.174Z,98389.34
2022-12-09T15:27:57.451Z,98387.00
2022-12-09T15:30:31.324Z,98386.53
2022-12-09T15:32:59.595Z,98390.84
2022-12-09T15:35:29.765Z,98388.81
2022-12-09T15:38:04.933Z,98386.34
2022-12-09T15:40:35.807Z,98395.78
2022-12-09T15:43:10.143Z,98393.63
2022-12-09T15:45:44.109Z,98392.00
2022-12-09T15:48:17.291Z,98394.47
2022-12-09T15:50:50.996Z,98394.00
2022-12-09T15:53:24.296Z,98394.75
2022-12-09T15:55:55.120Z,98398.50
2022-12-09T15:58:26.430Z,98396.22
2022-12-09T16:00:56.322Z,98397.75
2022-12-09T16:03:27.244Z,98400.97
2022-12-09T16:05:58.861Z,98406.28
2022-12-09T16:08:33.592Z,98405.09
2022-12-09T16:11:01.948Z,98402.97
2022-12-09T16:13:29.921Z,98409.41
2022-12-09T16:16:00.804Z,98406.19
2022-12-09T16:18:33.291Z,98404.19
2022-12-09T16:21:26.638Z,98399.78
2022-12-09T16:23:57.981Z,98404.13
2022-12-09T16:26:30.878Z,98404.63
2022-12-09T16:29:00.896Z,98402.25
2022-12-09T16:31:30.749Z,98395.66
2022-12-09T16:33:59.245Z,98399.88
2022-12-09T16:36:29.495Z,98402.97
2022-12-09T16:39:34.633Z,98411.13
2022-12-09T16:42:03.413Z,98407.72
2022-12-09T16:44:36.824Z,98407.84
2022-12-09T16:47:17.447Z,98418.28
2022-12-09T16:49:49.569Z,98419.38
2022-12-09T16:52:21.233Z,98418.22
2022-12-09T16:54:51.195Z,98426.06
2022-12-09T16:57:21.324Z,98425.59
2022-12-09T16:59:49.268Z,98425.69
2022-12-09T17:02:22.534Z,98425.69
2022-12-09T17:04:52.674Z,98427.81
2022-12-09T17:07:20.694Z,98432.75
2022-12-09T17:09:48.554Z,98425.91
2022-12-09T17:12:16.482Z,98432.88
2022-12-09T17:14:44.510Z,98425.19
2022-12-09T17:17:12.522Z,98428.06
2022-12-09T17:19:43.050Z,98428.44
2022-12-09T17:22:11.839Z,98425.53
2022-12-09T17:24:39.831Z,98420.59
2022-12-09T17:27:07.876Z,98429.19
2022-12-09T17:29:36.875Z,98428.38
2022-12-09T17:32:05.632Z,98428.84
2022-12-09T17:34:33.798Z,98429.94
2022-12-09T17:37:03.058Z,98429.00
2022-12-09T17:39:32.344Z,98440.34
2022-12-09T17:42:00.404Z,98444.41
2022-12-09T17:44:29.035Z,98440.94
2022-12-09T17:46:57.379Z,98443.19
2022-12-09T17:49:26.423Z,98446.06
2022-12-09T17:51:59.656Z,98444.66
2022-12-09T17:54:29.760Z,98448.78
2022-12-09T17:56:57.738Z,98448.69
2022-12-09T17:59:25.579Z,98449.88
2022-12-09T18:01:53.474Z,98452.88
2022-12-09T18:04:21.363Z,98454.88
2022-12-09T18:06:49.370Z,98456.00
2022-12-09T18:09:19.954Z,98458.34
2022-12-09T18:11:50.891Z,98456.19
2022-12-09T18:14:19.954Z,98468.16
2022-12-09T18:16:49.200Z,98465.50
2022-12-09T18:19:20.369Z,98467.50
2022-12-09T18:21:48.414Z,98463.50
2022-12-09T18:24:16.466Z,98462.13
2022-12-09T18:26:45.224Z,98469.50
2022-12-09T18:29:14.805Z,98478.69
2022-12-09T18:31:45.657Z,98470.31
2022-12-09T18:34:13.726Z,98472.31
2022-12-09T18:36:41.819Z,98468.72
2022-12-09T18:39:09.711Z,98470.81
2022-12-09T18:41:37.602Z,98473.34
2022-12-09T18:44:07.373Z,98476.13
2022-12-09T18:46:39.222Z,98480.13
2022-12-09T18:49:09.254Z,98474.81
2022-12-09T18:51:38.917Z,98470.34
2022-12-09T18:54:07.550Z,98477.66
2022-12-09T18:56:36.621Z,98476.66
2022-12-09T18:59:07.583Z,98473.88
2022-12-09T19:01:40.304Z,98476.53
2022-12-09T19:04:11.790Z,98489.66
2022-12-09T19:06:41.434Z,98481.66
2022-12-09T19:09:11.302Z,98484.66
2022-12-09T19:11:43.777Z,98490.13
2022-12-09T19:14:12.435Z,98485.22
2022-12-09T19:16:42.575Z,98490.09
2022-12-09T19:19:13.463Z,98490.41
2022-12-09T19:21:41.776Z,98491.06
2022-12-09T19:24:15.126Z,98482.28
2022-12-09T19:26:43.945Z,98480.81
2022-12-09T19:29:12.762Z,98480.16
2022-12-09T19:31:44.307Z,98485.50
2022-12-09T19:34:15.944Z,98482.81
2022-12-09T19:36:45.318Z,98494.72
2022-12-09T19:39:14.834Z,98495.75
2022-12-09T19:41:43.947Z,98502.00
2022-12-09T19:44:15.356Z,98504.69
2022-12-09T19:46:45.275Z,98496.09
2022-12-09T19:49:15.061Z,98499.34
2022-12-09T19:51:44.492Z,98507.97
2022-12-09T19:54:12.472Z,98503.19
2022-12-09T19:56:41.020Z,98508.94
2022-12-09T19:59:09.151Z,98510.59
2022-12-09T20:01:39.080Z,98505.97
2022-12-09T20:04:46.418Z,98510.13
2022-12-09T20:07:02.453Z,98517.25
2022-12-09T20:09:34.421Z,98516.84
2022-12-09T20:12:02.308Z,98526.19
2022-12-09T20:14:30.268Z,98523.94
2022-12-09T20:16:58.172Z,98524.66
2022-12-09T20:19:27.847Z,98533.22
2022-12-09T20:21:55.833Z,98533.94
2022-12-09T20:24:23.820Z,98526.34
2022-12-09T20:26:51.869Z,98531.13
2022-12-09T20:29:19.743Z,98533.94
2022-12-09T20:31:47.814Z,98533.88
2022-12-09T20:34:18.032Z,98539.47
2022-12-09T20:36:48.569Z,98542.31
2022-12-09T20:39:19.156Z,98540.84
2022-12-09T20:41:48.078Z,98547.13
2022-12-09T20:44:16.849Z,98545.84
2022-12-09T20:46:47.731Z,98546.84
2022-12-09T20:49:15.883Z,98543.44
2022-12-09T20:51:45.410Z,98548.19
2022-12-09T20:54:15.066Z,98545.25
2022-12-09T20:56:47.695Z,98551.50
2022-12-09T20:59:15.562Z,98560.66
2022-12-09T21:01:47.098Z,98549.75
2022-12-09T21:04:15.189Z,98548.44
2022-12-09T21:06:43.822Z,98558.56
2022-12-09T21:09:18.594Z,98549.84
2022-12-09T21:11:46.967Z,98549.50
2022-12-09T21:14:18.126Z,98553.59
2022-12-09T21:16:50.595Z,98554.81
2022-12-09T21:19:22.554Z,98546.84
2022-12-09T21:21:50.851Z,98556.47
2022-12-09T21:24:21.825Z,98544.56
2022-12-09T21:26:53.067Z,98547.69
2022-12-09T21:29:22.321Z,98548.78
2022-12-09T21:31:54.494Z,98550.25
2022-12-09T21:34:24.220Z,98547.13
2022-12-09T21:36:52.872Z,98552.78
2022-12-09T21:39:22.132Z,98554.81
2022-12-09T21:41:50.469Z,98555.72
2022-12-09T21:44:20.019Z,98558.38
2022-12-09T21:46:47.829Z,98558.44
2022-12-09T21:49:16.062Z,98551.84
2022-12-09T21:51:44.734Z,98557.16
2022-12-09T21:54:12.780Z,98551.56
2022-12-09T21:56:43.776Z,98552.09
2022-12-09T21:59:14.436Z,98552.88
2022-12-09T22:01:43.740Z,98546.94
2022-12-09T22:04:13.408Z,98555.22
2022-12-09T22:06:41.546Z,98561.22
2022-12-09T22:09:11.423Z,98560.19
2022-12-09T22:11:41.384Z,98564.78
2022-12-09T22:14:11.067Z,98567.78
2022-12-09T22:16:41.583Z,98569.47
2022-12-09T22:19:13.880Z,98568.81
2022-12-09T22:21:42.191Z,98576.22
2022-12-09T22:24:11.809Z,98572.09
2022-12-09T22:26:43.576Z,98576.56
2022-12-09T22:29:14.021Z,98579.53
2022-12-09T22:31:43.254Z,98576.41
2022-12-09T22:34:14.589Z,98578.84
2022-12-09T22:36:43.106Z,98579.03
2022-12-09T22:39:13.491Z,98578.41
2022-12-09T22:41:43.803Z,98582.34
2022-12-09T22:44:13.798Z,98573.88
2022-12-09T22:46:42.794Z,98584.94
2022-12-09T22:49:13.734Z,98590.13
2022-12-09T22:51:42.621Z,98587.63
2022-12-09T22:54:11.144Z,98585.00
2022-12-09T22:56:41.133Z,98590.47
2022-12-09T22:59:10.675Z,98598.59
2022-12-09T23:01:38.968Z,98595.13
2022-12-09T23:04:08.918Z,98593.44
2022-12-09T23:06:39.222Z,98602.22
2022-12-09T23:09:08.788Z,98591.75
2022-12-09T23:11:37.698Z,98592.94
2022-12-09T23:14:06.063Z,98590.66
2022-12-09T23:16:35.320Z,98595.00
2022-12-09T23:19:03.355Z,98593.69
2022-12-09T23:21:33.240Z,98589.09
2022-12-09T23:24:03.346Z,98594.03
2022-12-09T23:26:34.418Z,98593.06
2022-12-09T23:29:04.404Z,98597.88
2022-12-09T23:31:37.578Z,98594.72
2022-12-09T23:34:07.223Z,98587.78
2022-12-09T23:36:37.179Z,98595.69
2022-12-09T23:39:09.389Z,98591.41
2022-12-09T23:41:37.734Z,98595.03
2022-12-09T23:44:09.817Z,98588.44
2022-12-09T23:46:39.813Z,98593.56
2022-12-09T23:49:08.509Z,98592.38
2022-12-09T23:51:39.507Z,98596.38
2022-12-09T23:54:09.433Z,98588.59
2022-12-09T23:56:39.924Z,98591.06
2022-12-09T23:59:09.867Z,98588.91
